createdAt,value
2022-12-04T00:00:00.132Z,1001.98
2022-12-04T00:05:00.184Z,1001.95
2022-12-04T00:10:00.094Z,1001.9
2022-12-04T00:15:24.427Z,1001.87
2022-12-04T00:20:00.116Z,1001.81
2022-12-04T00:25:00.087Z,1001.95
2022-12-04T00:30:00.099Z,1002.04
2022-12-04T00:35:00.092Z,1002.06
2022-12-04T00:40:00.106Z,1002.1
2022-12-04T00:45:00.094Z,1002.02
2022-12-04T00:50:00.100Z,1001.99
2022-12-04T00:55:00.085Z,1001.88
2022-12-04T01:00:00.159Z,1001.76
2022-12-04T01:05:00.211Z,1001.79
2022-12-04T01:10:00.128Z,1001.84
2022-12-04T01:15:00.126Z,1001.75
2022-12-04T01:20:00.123Z,1001.7
2022-12-04T01:25:00.082Z,1001.71
2022-12-04T01:30:00.126Z,1001.66
2022-12-04T01:35:00.154Z,1001.62
2022-12-04T01:40:00.102Z,1001.46
2022-12-04T01:45:00.125Z,1001.49
2022-12-04T01:50:00.103Z,1001.47
2022-12-04T01:55:00.096Z,1001.55
2022-12-04T02:00:00.123Z,1001.53
2022-12-04T02:05:00.085Z,1001.42
2022-12-04T02:10:00.086Z,1001.42
2022-12-04T02:15:00.102Z,1001.49
2022-12-04T02:20:00.122Z,1001.56
2022-12-04T02:25:00.102Z,1001.48
2022-12-04T02:30:00.081Z,1001.44
2022-12-04T02:35:00.089Z,1001.45
2022-12-04T02:40:00.139Z,1001.33
2022-12-04T02:45:00.113Z,1001.28
2022-12-04T02:50:00.128Z,1001.21
2022-12-04T02:55:02.899Z,1001.18
2022-12-04T03:00:00.131Z,1001.15
2022-12-04T03:05:00.085Z,1001.16
2022-12-04T03:10:00.089Z,1001.19
2022-12-04T03:15:00.089Z,1001.18
2022-12-04T03:20:00.123Z,1001.28
2022-12-04T03:25:00.073Z,1001.3
2022-12-04T03:30:00.083Z,1001.23
2022-12-04T03:35:00.093Z,1001.29
2022-12-04T03:40:00.135Z,1001.24
2022-12-04T03:45:00.072Z,1001.29
2022-12-04T03:50:00.085Z,1001.29
2022-12-04T03:55:00.082Z,1001.33
2022-12-04T04:00:00.340Z,1001.36
2022-12-04T04:05:00.090Z,1001.43
2022-12-04T04:10:00.093Z,1001.4
2022-12-04T04:15:00.082Z,1001.37
2022-12-04T04:20:00.126Z,1001.4
2022-12-04T04:25:00.096Z,1000.91
2022-12-04T04:30:00.079Z,1000.75
2022-12-04T04:35:00.099Z,1000.61
2022-12-04T04:40:00.124Z,1000.69
2022-12-04T04:45:00.097Z,1000.64
2022-12-04T04:50:00.119Z,1000.58
2022-12-04T04:55:00.077Z,1000.67
2022-12-04T05:00:00.138Z,1000.7
2022-12-04T05:05:00.252Z,1000.75
2022-12-04T05:10:00.099Z,1000.65
2022-12-04T05:15:00.081Z,1000.74
2022-12-04T05:20:00.391Z,1000.7
2022-12-04T05:25:00.077Z,1000.57
2022-12-04T05:30:00.110Z,1000.58
2022-12-04T05:35:00.085Z,1000.58
2022-12-04T05:40:00.169Z,1000.45
2022-12-04T05:45:00.080Z,1000.61
2022-12-04T05:50:00.077Z,1000.59
2022-12-04T05:55:00.082Z,1000.4
2022-12-04T06:00:00.112Z,1000.37
2022-12-04T06:05:00.081Z,1000.36
2022-12-04T06:10:00.102Z,1000.28
2022-12-04T06:15:00.110Z,1000.3
2022-12-04T06:20:00.438Z,1000.32
2022-12-04T06:25:00.119Z,1000.26
2022-12-04T06:30:00.098Z,1000.23
2022-12-04T06:35:00.090Z,1000.37
2022-12-04T06:40:00.259Z,1000.37
2022-12-04T06:45:00.080Z,1000.59
2022-12-04T06:50:00.097Z,1000.66
2022-12-04T06:55:00.088Z,1000.51
2022-12-04T07:00:00.124Z,1000.56
2022-12-04T07:05:00.081Z,1000.62
2022-12-04T07:10:00.080Z,1000.69
2022-12-04T07:15:00.096Z,1000.83
2022-12-04T07:20:00.180Z,1000.77
2022-12-04T07:25:00.070Z,1000.78
2022-12-04T07:30:00.095Z,1000.76
2022-12-04T07:35:00.119Z,1000.82
2022-12-04T07:40:00.105Z,1000.81
2022-12-04T07:45:00.103Z,1000.86
2022-12-04T07:50:00.098Z,1000.86
2022-12-04T07:55:00.086Z,1000.81
2022-12-04T08:00:00.147Z,1000.78
2022-12-04T08:05:00.202Z,1000.66
2022-12-04T08:10:00.108Z,1000.76
2022-12-04T08:15:00.095Z,1000.97
2022-12-04T08:20:00.124Z,1000.87
2022-12-04T08:25:00.085Z,1000.88
2022-12-04T08:30:00.086Z,1001.03
2022-12-04T08:35:00.107Z,1000.92
2022-12-04T08:40:00.158Z,1000.96
2022-12-04T08:45:00.082Z,1000.95
2022-12-04T08:50:00.116Z,1000.78
2022-12-04T08:55:00.114Z,1000.81
2022-12-04T09:00:00.137Z,1000.93
2022-12-04T09:05:00.117Z,1000.76
2022-12-04T09:10:00.440Z,1000.85
2022-12-04T09:15:00.096Z,1000.84
2022-12-04T09:20:01.292Z,1000.81
2022-12-04T09:25:00.086Z,1000.8
2022-12-04T09:30:00.098Z,1000.77
2022-12-04T09:35:00.091Z,1000.73
2022-12-04T09:40:00.125Z,1000.73
2022-12-04T09:45:00.099Z,1000.58
2022-12-04T09:50:00.097Z,1000.7
2022-12-04T09:55:00.088Z,1000.65
2022-12-04T10:00:00.145Z,1000.54
2022-12-04T10:05:00.075Z,1000.34
2022-12-04T10:10:00.092Z,1000.2
2022-12-04T10:15:00.098Z,1000.3
2022-12-04T10:20:00.126Z,1000.4
2022-12-04T10:25:00.082Z,1000.46
2022-12-04T10:30:00.095Z,1000.39
2022-12-04T10:35:00.069Z,1000.45
2022-12-04T10:40:00.115Z,1000.47
2022-12-04T10:45:00.094Z,1000.29
2022-12-04T10:50:00.081Z,1000.16
2022-12-04T10:55:00.103Z,1000.21
2022-12-04T11:00:00.339Z,1000.34
2022-12-04T11:05:00.076Z,1000.29
2022-12-04T11:10:00.092Z,1000.34
2022-12-04T11:15:00.077Z,1000.28
2022-12-04T11:20:00.118Z,1000.21
2022-12-04T11:25:00.114Z,1000.2
2022-12-04T11:30:00.110Z,1000.24
2022-12-04T11:35:00.084Z,1000.34
2022-12-04T11:40:00.113Z,1000.19
2022-12-04T11:45:00.095Z,999.99
2022-12-04T11:50:00.300Z,1000.13
2022-12-04T11:55:00.080Z,1000.02
2022-12-04T12:00:00.198Z,1000.07
2022-12-04T12:05:00.083Z,1000.03
2022-12-04T12:10:00.112Z,999.8
2022-12-04T12:15:00.089Z,999.8
2022-12-04T12:20:00.122Z,999.68
2022-12-04T12:25:00.099Z,999.68
2022-12-04T12:30:00.132Z,999.67
2022-12-04T12:35:00.080Z,999.65
2022-12-04T12:40:00.124Z,999.55
2022-12-04T12:45:00.089Z,999.46
2022-12-04T12:50:00.088Z,999.4
2022-12-04T12:55:00.081Z,999.43
2022-12-04T13:00:00.143Z,999.35
2022-12-04T13:05:00.092Z,999.24
2022-12-04T13:10:00.079Z,999.3
2022-12-04T13:15:00.096Z,999.31
2022-12-04T13:20:01.531Z,999.12
2022-12-04T13:25:00.078Z,999.03
2022-12-04T13:30:00.124Z,999.03
2022-12-04T13:35:00.102Z,998.96
2022-12-04T13:40:00.134Z,999.04
2022-12-04T13:45:00.147Z,998.97
2022-12-04T13:50:03.702Z,999
2022-12-04T13:55:00.126Z,999.1
2022-12-04T14:00:00.134Z,999.11
2022-12-04T14:05:00.239Z,999.18
2022-12-04T14:10:00.130Z,999.15
2022-12-04T14:15:00.087Z,999.16
2022-12-04T14:20:04.372Z,999.14
2022-12-04T14:25:00.083Z,999.14
2022-12-04T14:30:00.120Z,999.13
2022-12-04T14:35:00.095Z,999.13
2022-12-04T14:40:00.116Z,999.21
2022-12-04T14:45:00.120Z,999.33
2022-12-04T14:50:00.095Z,999.3
2022-12-04T14:55:00.085Z,999.11
2022-12-04T15:00:00.195Z,999.31
2022-12-04T15:05:00.403Z,999.35
2022-12-04T15:10:00.094Z,999.25
2022-12-04T15:15:00.109Z,999.13
2022-12-04T15:20:00.115Z,999.07
2022-12-04T15:25:00.103Z,999
2022-12-04T15:30:00.103Z,999.08
2022-12-04T15:35:00.113Z,999.1
2022-12-04T15:40:00.153Z,999.06
2022-12-04T15:45:00.088Z,998.9
2022-12-04T15:50:00.087Z,998.89
2022-12-04T15:55:00.089Z,998.85
2022-12-04T16:00:00.127Z,998.87
2022-12-04T16:05:00.301Z,998.81
2022-12-04T16:10:03.474Z,998.83
2022-12-04T16:15:00.072Z,998.76
2022-12-04T16:20:00.196Z,998.77
2022-12-04T16:25:00.414Z,998.72
2022-12-04T16:30:00.233Z,998.75
2022-12-04T16:35:00.094Z,998.69
2022-12-04T16:40:00.185Z,998.77
2022-12-04T16:45:00.213Z,998.84
2022-12-04T16:50:00.088Z,998.74
2022-12-04T16:55:04.532Z,998.74
2022-12-04T17:00:00.230Z,998.76
2022-12-04T17:05:00.388Z,998.81
2022-12-04T17:10:00.090Z,998.78
2022-12-04T17:15:00.088Z,998.81
2022-12-04T17:20:00.113Z,998.77
2022-12-04T17:25:00.408Z,998.77
2022-12-04T17:30:00.111Z,998.68
2022-12-04T17:35:00.086Z,998.69
2022-12-04T17:40:00.118Z,998.73
2022-12-04T17:45:00.115Z,998.7
2022-12-04T17:50:00.086Z,998.69
2022-12-04T17:55:00.073Z,998.57
2022-12-04T18:00:00.128Z,998.55
2022-12-04T18:05:00.086Z,998.56
2022-12-04T18:10:00.453Z,998.43
2022-12-04T18:15:00.096Z,998.56
2022-12-04T18:20:04.422Z,998.49
2022-12-04T18:25:00.092Z,998.46
2022-12-04T18:30:00.379Z,998.46
2022-12-04T18:35:00.101Z,998.44
2022-12-04T18:40:04.839Z,998.52
2022-12-04T18:45:00.090Z,998.49
2022-12-04T18:50:00.429Z,998.46
2022-12-04T18:55:00.103Z,998.57
2022-12-04T19:00:00.359Z,998.57
2022-12-04T19:05:00.102Z,998.57
2022-12-04T19:10:10.684Z,998.59
2022-12-04T19:15:00.081Z,998.58
2022-12-04T19:20:00.116Z,998.68
2022-12-04T19:25:00.134Z,998.64
2022-12-04T19:30:00.119Z,998.57
2022-12-04T19:35:00.089Z,998.63
2022-12-04T19:40:00.118Z,998.58
2022-12-04T19:45:00.086Z,998.6
2022-12-04T19:50:00.284Z,998.7
2022-12-04T19:55:00.083Z,998.71
2022-12-04T20:00:00.466Z,998.7
2022-12-04T20:05:00.112Z,998.68
2022-12-04T20:10:00.388Z,998.64
2022-12-04T20:15:00.086Z,998.7
2022-12-04T20:20:00.124Z,998.65
2022-12-04T20:25:00.078Z,998.67
2022-12-04T20:30:00.102Z,998.61
2022-12-04T20:35:00.090Z,998.42
2022-12-04T20:40:00.111Z,998.41
2022-12-04T20:45:00.081Z,998.39
2022-12-04T20:50:00.083Z,998.33
2022-12-04T20:55:00.088Z,998.28
2022-12-04T21:00:00.120Z,998.38
2022-12-04T21:05:00.083Z,998.29
2022-12-04T21:10:00.324Z,998.39
2022-12-04T21:15:00.089Z,998.24
2022-12-04T21:20:04.234Z,998.22
2022-12-04T21:25:00.102Z,998.65
2022-12-04T21:30:00.103Z,998.74
2022-12-04T21:35:00.086Z,998.63
2022-12-04T21:40:00.325Z,998.64
2022-12-04T21:45:00.095Z,998.68
2022-12-04T21:50:00.435Z,998.73
2022-12-04T21:55:00.078Z,998.77
2022-12-04T22:00:00.433Z,998.71
2022-12-04T22:05:00.117Z,998.63
2022-12-04T22:10:02.057Z,998.68
2022-12-04T22:15:00.095Z,998.64
2022-12-04T22:20:00.295Z,998.63
2022-12-04T22:25:01.547Z,998.69
2022-12-04T22:30:00.116Z,998.72
2022-12-04T22:35:00.095Z,998.7
2022-12-04T22:40:00.299Z,998.6
2022-12-04T22:45:00.085Z,998.62
2022-12-04T22:50:00.251Z,998.6
2022-12-04T22:55:00.090Z,998.69
2022-12-04T23:00:00.189Z,998.69
2022-12-04T23:05:00.164Z,998.66
2022-12-04T23:10:00.357Z,998.63
2022-12-04T23:15:00.081Z,998.71
2022-12-04T23:20:00.133Z,998.63
2022-12-04T23:25:00.102Z,998.59
2022-12-04T23:30:00.115Z,998.47
2022-12-04T23:35:00.092Z,998.4
2022-12-04T23:40:00.360Z,998.32
2022-12-04T23:45:00.106Z,998.44
2022-12-04T23:50:00.262Z,998.35
2022-12-04T23:55:00.094Z,998.34
